Time;durP1;ratioP1;P1;durP2;ratioP2;P2;SDS_P1;SDS_P2;PMS_P1;PMS_P2;Temp;Humidity;BMP_temperature;BMP_pressure;BME280_temperature;BME280_humidity;BME280_pressure;Samples;Min_cycle;Max_cycle;Signal;HPM_P1;HPM_P2
2022/05/10 00:02:06;;;;;;;11.80;10.60;;;13.40;1.00;;;;;;5076834;28;20560;-60
2022/05/10 00:05:04;;;;;;;12.83;11.63;;;13.40;1.00;;;;;;5076389;28;20493;-60
2022/05/10 00:07:34;;;;;;;11.63;10.63;;;13.40;1.00;;;;;;5074308;28;20926;-60
2022/05/10 00:10:04;;;;;;;11.60;10.40;;;13.40;1.00;;;;;;5076136;28;20510;-60
2022/05/10 00:12:36;;;;;;;10.50;9.60;;;13.30;1.00;;;;;;5076372;28;20515;-60
2022/05/10 00:15:04;;;;;;;12.67;11.63;;;13.30;1.00;;;;;;5076593;28;20915;-60
2022/05/10 00:17:40;;;;;;;12.27;11.30;;;13.40;1.00;;;;;;5076126;28;20521;-60
2022/05/10 00:23:14;;;;;;;12.10;11.00;;;13.40;1.00;;;;;;5013956;28;20463;-60
2022/05/10 00:25:52;;;;;;;13.27;12.10;;;13.40;1.00;;;;;;5014474;28;20456;-60
2022/05/10 00:28:19;;;;;;;12.07;10.97;;;13.40;1.00;;;;;;5013301;28;20487;-60
2022/05/10 00:30:48;;;;;;;12.20;11.23;;;13.40;1.00;;;;;;5013381;28;20554;-60
2022/05/10 00:33:25;;;;;;;12.37;11.37;;;13.40;1.00;;;;;;5014703;28;20473;-60
2022/05/10 00:35:56;;;;;;;12.10;11.00;;;13.40;1.00;;;;;;4998086;28;20555;-60
2022/05/10 00:38:30;;;;;;;11.90;10.70;;;13.40;1.00;;;;;;5014637;28;20463;-60
2022/05/10 00:41:06;;;;;;;11.73;10.83;;;13.40;1.00;;;;;;5014027;28;20514;-61
2022/05/10 00:43:43;;;;;;;11.97;11.07;;;13.40;1.00;;;;;;5015079;28;20558;-60
2022/05/10 00:46:16;;;;;;;11.67;10.57;;;13.40;1.00;;;;;;5016988;28;20502;-61
2022/05/10 00:48:49;;;;;;;10.17;9.17;;;13.50;1.00;;;;;;5058655;28;20498;-61
2022/05/10 00:51:20;;;;;;;10.93;10.03;;;13.50;99.90;;;;;;5067665;28;20508;-60
2022/05/10 00:54:30;;;;;;;10.63;9.73;;;13.60;99.90;;;;;;5080177;28;20877;-60
2022/05/10 00:57:07;;;;;;;11.57;10.40;;;13.60;99.90;;;;;;5076152;28;20514;-60
2022/05/10 00:59:46;;;;;;;11.13;10.23;;;13.70;99.90;;;;;;5079701;28;20493;-61
2022/05/10 01:02:26;;;;;;;10.90;9.90;;;13.70;99.90;;;;;;5079304;28;20497;-61
2022/05/10 01:05:09;;;;;;;11.17;9.97;;;13.70;99.90;;;;;;5079528;28;20477;-60
2022/05/10 01:07:49;;;;;;;10.20;9.40;;;13.70;99.90;;;;;;5079401;28;20459;-60
2022/05/10 01:10:25;;;;;;;10.90;9.33;;;13.60;99.90;;;;;;5078602;28;20461;-60
2022/05/10 01:13:05;;;;;;;11.17;10.20;;;13.50;99.90;;;;;;5079539;28;20507;-60
2022/05/10 01:16:11;;;;;;;11.67;10.10;;;13.40;99.90;;;;;;5079315;28;20517;-61
2022/05/10 01:18:39;;;;;;;11.43;10.40;;;13.40;99.90;;;;;;5078848;28;20495;-61
2022/05/10 01:21:23;;;;;;;11.00;10.10;;;13.40;99.90;;;;;;5079033;28;20504;-60
2022/05/10 01:24:21;;;;;;;10.97;9.83;;;13.40;99.90;;;;;;5079270;28;20504;-60
2022/05/10 01:27:04;;;;;;;10.67;9.77;;;13.40;99.90;;;;;;5078762;28;20544;-61
2022/05/10 01:29:38;;;;;;;9.70;8.90;;;13.40;99.90;;;;;;5079388;28;20881;-60
2022/05/10 01:35:01;;;;;;;9.80;9.00;;;13.40;99.90;;;;;;5078587;28;20792;-61
2022/05/10 01:37:37;;;;;;;13.30;10.33;;;13.30;1.00;;;;;;5078271;28;20468;-60
2022/05/10 01:40:30;;;;;;;10.90;9.90;;;13.30;1.00;;;;;;5078478;28;20465;-60
2022/05/10 01:43:03;;;;;;;12.90;11.60;;;13.30;1.00;;;;;;5078928;28;20467;-60
2022/05/10 01:45:40;;;;;;;13.10;11.80;;;13.10;1.00;;;;;;5078922;28;20786;-60
2022/05/10 01:48:17;;;;;;;12.03;10.83;;;13.10;1.00;;;;;;5077284;28;20528;-60
2022/05/10 01:50:49;;;;;;;11.47;10.57;;;13.00;1.00;;;;;;5078426;28;20514;-60
2022/05/10 01:53:20;;;;;;;12.90;11.67;;;13.00;1.00;;;;;;5078768;28;20457;-61
2022/05/10 01:56:01;;;;;;;11.97;10.83;;;13.00;1.00;;;;;;5077522;28;20497;-61
2022/05/10 01:58:29;;;;;;;11.60;10.70;;;13.00;1.00;;;;;;5078466;28;20471;-61
2022/05/10 02:01:06;;;;;;;10.80;9.87;;;13.10;1.00;;;;;;5078278;28;20461;-61
2022/05/10 02:04:22;;;;;;;10.43;9.53;;;13.10;1.00;;;;;;5077891;28;20511;-60
2022/05/10 02:06:56;;;;;;;11.23;10.33;;;13.10;1.00;;;;;;5042606;28;20473;-60
2022/05/10 02:09:30;;;;;;;9.70;8.80;;;13.20;1.00;;;;;;5077660;28;20464;-61
2022/05/10 02:12:11;;;;;;;11.50;10.50;;;13.10;1.00;;;;;;5078261;28;20492;-60
2022/05/10 02:14:46;;;;;;;10.97;9.83;;;13.10;1.00;;;;;;5078577;28;20492;-60
2022/05/10 02:17:17;;;;;;;11.07;9.90;;;13.20;1.00;;;;;;5077754;28;20790;-61
2022/05/10 02:19:51;;;;;;;10.90;9.90;;;13.10;1.00;;;;;;5077049;28;20504;-61
2022/05/10 02:22:23;;;;;;;10.93;10.03;;;13.10;1.00;;;;;;5078334;28;20924;-60
2022/05/10 02:24:59;;;;;;;10.30;9.30;;;13.00;1.00;;;;;;5077627;28;20926;-61
2022/05/10 02:27:35;;;;;;;10.47;9.37;;;13.00;1.00;;;;;;5077900;28;20484;-60
2022/05/10 02:30:06;;;;;;;10.53;9.63;;;12.90;1.00;;;;;;5077602;28;20480;-60
2022/05/10 02:36:03;;;;;;;10.57;9.10;;;12.90;1.00;;;;;;5077663;28;20530;-61
2022/05/10 02:38:32;;;;;;;10.00;9.10;;;12.90;1.00;;;;;;5077533;28;20511;-61
2022/05/10 02:41:05;;;;;;;10.93;10.03;;;12.90;1.00;;;;;;5076772;28;20916;-61
2022/05/10 02:43:37;;;;;;;11.13;10.23;;;12.90;1.00;;;;;;5077451;28;20933;-61
2022/05/10 02:46:04;;;;;;;11.87;10.80;;;12.80;1.00;;;;;;5077752;28;20548;-61
2022/05/10 02:48:34;;;;;;;10.87;9.97;;;12.80;1.00;;;;;;5077551;28;20461;-60
2022/05/10 02:51:04;;;;;;;11.40;10.30;;;12.80;1.00;;;;;;5077313;28;20831;-61
2022/05/10 02:53:33;;;;;;;11.10;10.30;;;12.80;1.00;;;;;;5077641;28;20484;-60
2022/05/10 02:56:27;;;;;;;12.67;10.20;;;12.80;1.00;;;;;;5077876;28;20557;-61
2022/05/10 02:59:00;;;;;;;10.23;9.40;;;12.80;1.00;;;;;;5077471;28;20963;-61
2022/05/10 03:01:35;;;;;;;11.30;10.30;;;12.80;1.00;;;;;;5077579;28;20579;-61
2022/05/10 03:04:04;;;;;;;11.00;10.00;;;12.80;1.00;;;;;;5077595;28;20461;-61
2022/05/10 03:06:36;;;;;;;11.93;10.60;;;12.80;1.00;;;;;;5076951;28;20497;-61
2022/05/10 03:09:04;;;;;;;11.17;10.03;;;12.80;1.00;;;;;;5076048;28;20468;-61
2022/05/10 03:11:41;;;;;;;11.30;10.40;;;12.80;1.00;;;;;;5076523;28;20461;-61
2022/05/10 03:14:12;;;;;;;11.70;10.60;;;12.70;1.00;;;;;;5077434;28;20472;-61
2022/05/10 03:16:41;;;;;;;10.80;9.90;;;12.70;1.00;;;;;;5076575;28;20551;-61
2022/05/10 03:19:08;;;;;;;11.03;10.23;;;12.70;1.00;;;;;;5075652;28;20961;-60
2022/05/10 03:21:41;;;;;;;10.93;9.93;;;12.70;1.00;;;;;;5076968;28;20519;-60
2022/05/10 03:24:11;;;;;;;12.00;10.90;;;12.70;1.00;;;;;;5077325;28;20534;-61
2022/05/10 03:26:46;;;;;;;10.77;9.67;;;12.70;1.00;;;;;;5076522;28;20465;-61
2022/05/10 03:29:13;;;;;;;10.37;9.53;;;12.70;1.00;;;;;;5076831;28;20504;-61
2022/05/10 03:31:43;;;;;;;11.47;10.37;;;12.60;1.00;;;;;;5076781;28;20519;-61
2022/05/10 03:36:56;;;;;;;9.80;9.00;;;12.50;1.00;;;;;;5076021;28;20630;-61
2022/05/10 03:39:23;;;;;;;11.30;10.23;;;12.60;1.00;;;;;;5077044;28;20919;-61
2022/05/10 03:41:50;;;;;;;11.43;10.33;;;12.60;1.00;;;;;;5076973;28;20485;-61
2022/05/10 03:44:20;;;;;;;11.30;10.30;;;12.50;1.00;;;;;;5077363;28;20465;-61
2022/05/10 03:46:47;;;;;;;10.97;9.90;;;12.50;1.00;;;;;;5076343;28;20879;-61
2022/05/10 03:49:19;;;;;;;11.57;10.47;;;12.50;1.00;;;;;;5076929;28;20510;-61
2022/05/10 03:51:46;;;;;;;11.87;10.77;;;12.50;1.00;;;;;;5076774;28;20461;-61
2022/05/10 03:54:17;;;;;;;12.20;11.00;;;12.50;1.00;;;;;;5076854;28;20468;-61
2022/05/10 03:56:44;;;;;;;10.10;9.20;;;12.50;1.00;;;;;;5076620;28;20493;-61
2022/05/10 03:59:11;;;;;;;13.10;11.00;;;12.40;1.00;;;;;;5076261;28;20465;-61
2022/05/10 04:01:42;;;;;;;11.50;10.53;;;12.40;1.00;;;;;;5076823;28;20496;-61
2022/05/10 04:04:12;;;;;;;12.10;11.10;;;12.40;1.00;;;;;;5057028;28;20741;-61
2022/05/10 04:06:45;;;;;;;10.87;9.97;;;12.40;1.00;;;;;;5056425;28;20515;-61
2022/05/10 04:09:11;;;;;;;10.87;9.93;;;12.40;1.00;;;;;;5069440;28;20461;-61
2022/05/10 04:12:23;;;;;;;11.93;10.80;;;12.40;1.00;;;;;;5076684;28;20461;-61
2022/05/10 04:14:53;;;;;;;11.03;10.13;;;12.40;1.00;;;;;;5052695;28;20506;-61
2022/05/10 04:20:26;;;;;;;11.13;10.30;;;12.50;1.00;;;;;;5073800;28;20472;-61
2022/05/10 04:22:56;;;;;;;11.90;10.80;;;12.40;1.00;;;;;;5080399;28;20514;-61
2022/05/10 04:25:25;;;;;;;12.50;11.30;;;12.50;1.00;;;;;;5080643;28;20758;-61
2022/05/10 04:28:04;;;;;;;11.03;9.93;;;12.60;1.00;;;;;;5080043;28;20460;-61
2022/05/10 04:30:35;;;;;;;11.07;10.17;;;12.60;1.00;;;;;;5077969;28;20536;-61
2022/05/10 04:33:02;;;;;;;11.57;10.33;;;12.70;1.00;;;;;;5079173;28;20736;-61
2022/05/10 04:35:34;;;;;;;10.93;10.03;;;12.70;1.00;;;;;;5079589;28;20524;-61
2022/05/10 04:38:07;;;;;;;11.67;10.57;;;12.80;1.00;;;;;;5080218;28;20468;-61
2022/05/10 04:43:29;;;;;;;10.50;9.43;;;12.90;1.00;;;;;;5079766;28;20479;-61
2022/05/10 04:45:59;;;;;;;10.93;9.93;;;13.00;1.00;;;;;;5080226;28;20479;-61
2022/05/10 04:51:48;;;;;;;11.50;9.80;;;13.10;1.00;;;;;;5079882;28;20453;-61
2022/05/10 04:54:23;;;;;;;10.43;9.53;;;13.30;1.00;;;;;;5079766;28;20469;-61
2022/05/10 04:57:01;;;;;;;11.57;9.87;;;13.30;1.00;;;;;;5079680;28;20492;-61
2022/05/10 04:59:31;;;;;;;10.67;9.77;;;13.50;1.00;;;;;;5080143;28;20507;-61
2022/05/10 05:02:00;;;;;;;11.13;10.13;;;13.50;1.00;;;;;;5079341;28;20522;-61
2022/05/10 05:04:27;;;;;;;10.60;9.70;;;13.50;1.00;;;;;;5079249;28;20461;-61
2022/05/10 05:06:54;;;;;;;10.90;10.10;;;13.60;1.00;;;;;;5078892;28;20453;-61
2022/05/10 05:09:27;;;;;;;10.93;9.90;;;13.60;1.00;;;;;;5079465;28;20469;-61
2022/05/10 05:11:57;;;;;;;11.43;10.43;;;13.70;1.00;;;;;;5079073;28;20469;-61
2022/05/10 05:14:24;;;;;;;11.33;10.13;;;13.70;1.00;;;;;;5079074;28;20512;-61
2022/05/10 05:16:53;;;;;;;12.17;10.93;;;13.70;1.00;;;;;;5078840;28;20529;-61
2022/05/10 05:19:30;;;;;;;12.20;11.10;;;13.90;1.00;;;;;;5079109;28;20485;-61
2022/05/10 05:21:59;;;;;;;11.00;10.00;;;13.90;99.90;;;;;;5079028;28;20465;-61
2022/05/10 05:24:29;;;;;;;11.70;10.60;;;14.00;99.90;;;;;;5078607;28;20803;-59
2022/05/10 05:26:57;;;;;;;10.70;9.67;;;14.00;99.90;;;;;;5079187;28;20761;-61
2022/05/10 05:29:27;;;;;;;10.50;9.70;;;14.10;99.90;;;;;;5078944;28;20891;-61
2022/05/10 05:31:59;;;;;;;12.93;10.73;;;14.20;99.90;;;;;;5079617;28;20468;-61
2022/05/10 05:34:30;;;;;;;11.37;10.37;;;14.30;99.90;;;;;;5078201;28;20885;-61
2022/05/10 05:39:48;;;;;;;11.53;10.33;;;14.50;99.90;;;;;;5078888;28;20535;-60
2022/05/10 05:42:17;;;;;;;11.00;9.87;;;14.80;99.90;;;;;;5079367;28;20534;-60
2022/05/10 05:44:44;;;;;;;10.73;9.87;;;15.00;99.90;;;;;;5078560;28;20516;-60
2022/05/10 05:47:14;;;;;;;10.50;9.60;;;15.20;99.90;;;;;;5078795;28;20814;-60
2022/05/10 05:49:49;;;;;;;10.30;9.43;;;15.20;99.90;;;;;;5079017;28;20461;-60
2022/05/10 05:52:20;;;;;;;11.53;10.00;;;15.40;99.90;;;;;;5079182;28;20514;-60
2022/05/10 05:54:47;;;;;;;10.80;9.23;;;15.50;99.90;;;;;;5078605;28;20466;-60
2022/05/10 05:57:14;;;;;;;11.00;9.80;;;15.50;99.90;;;;;;5078798;28;20956;-60
2022/05/10 05:59:40;;;;;;;10.87;9.77;;;15.70;99.90;;;;;;5078971;28;20496;-60
2022/05/10 06:02:18;;;;;;;10.27;9.37;;;15.70;99.90;;;;;;5078594;28;20504;-60
2022/05/10 06:04:47;;;;;;;10.17;9.30;;;15.80;99.90;;;;;;5078123;28;20457;-60
2022/05/10 06:07:17;;;;;;;10.70;9.83;;;15.90;99.90;;;;;;5077847;28;20778;-60
2022/05/10 06:09:45;;;;;;;10.87;9.97;;;16.10;99.90;;;;;;5077630;28;20457;-60
2022/05/10 06:12:15;;;;;;;10.33;9.50;;;16.20;99.90;;;;;;5077773;28;20461;-60
2022/05/10 06:14:48;;;;;;;8.93;8.13;;;16.40;99.90;;;;;;5077970;28;20897;-60
2022/05/10 06:17:18;;;;;;;9.90;9.00;;;16.60;99.90;;;;;;5076551;28;20878;-60
2022/05/10 06:19:47;;;;;;;10.60;9.80;;;16.80;99.90;;;;;;5069464;28;20921;-60
2022/05/10 06:22:21;;;;;;;8.70;8.00;;;17.00;99.90;;;;;;5076639;28;20830;-60
2022/05/10 06:24:50;;;;;;;10.23;9.33;;;17.30;99.90;;;;;;5077025;28;20468;-60
2022/05/10 06:27:26;;;;;;;9.20;8.40;;;17.70;99.90;;;;;;5076718;28;20898;-60
2022/05/10 06:29:54;;;;;;;8.00;7.40;;;18.10;99.90;;;;;;5078104;28;20753;-60
2022/05/10 06:32:27;;;;;;;10.03;9.03;;;18.30;99.90;;;;;;5077760;28;20488;-61
2022/05/10 06:35:01;;;;;;;9.60;8.70;;;18.50;99.90;;;;;;5076765;28;20495;-61
2022/05/10 06:40:19;;;;;;;8.03;7.43;;;18.60;99.90;;;;;;5077549;28;20526;-60
2022/05/10 06:42:47;;;;;;;8.47;7.60;;;18.90;99.90;;;;;;5076776;28;20890;-60
2022/05/10 06:45:19;;;;;;;8.63;7.70;;;19.00;99.90;;;;;;5077014;28;20493;-59
2022/05/10 06:47:54;;;;;;;8.60;7.80;;;19.20;99.90;;;;;;5077165;28;20464;-59
2022/05/10 06:50:25;;;;;;;8.17;7.47;;;19.50;99.90;;;;;;5077488;28;20461;-60
2022/05/10 06:53:00;;;;;;;8.03;7.43;;;19.50;99.90;;;;;;5076015;28;20508;-60
2022/05/10 06:55:28;;;;;;;9.03;8.10;;;19.70;99.90;;;;;;5075887;28;20465;-59
2022/05/10 06:57:55;;;;;;;8.57;7.90;;;19.70;99.90;;;;;;5075975;28;20525;-59
2022/05/10 07:00:29;;;;;;;7.57;7.07;;;19.90;99.90;;;;;;5076163;28;20460;-59
2022/05/10 07:02:59;;;;;;;7.50;6.93;;;20.20;99.90;;;;;;5075432;28;20974;-60
2022/05/10 07:05:35;;;;;;;7.70;7.03;;;20.20;99.90;;;;;;5076716;28;20468;-60
2022/05/10 07:08:10;;;;;;;10.17;7.80;;;20.40;99.90;;;;;;5076955;28;20475;-60
2022/05/10 07:10:40;;;;;;;8.43;7.73;;;20.70;99.90;;;;;;5077176;28;20501;-60
2022/05/10 07:13:10;;;;;;;11.33;7.40;;;21.00;99.90;;;;;;5077526;28;20928;-60
2022/05/10 07:15:41;;;;;;;8.00;7.30;;;21.10;99.90;;;;;;5077084;28;20823;-61
2022/05/10 07:18:08;;;;;;;8.10;7.50;;;21.40;99.90;;;;;;5076982;28;20517;-61
2022/05/10 07:20:36;;;;;;;8.47;7.33;;;21.80;99.90;;;;;;5077057;28;20507;-60
2022/05/10 07:23:05;;;;;;;8.63;7.90;;;22.00;99.90;;;;;;5076938;28;20493;-60
2022/05/10 07:25:33;;;;;;;7.40;6.80;;;22.10;99.90;;;;;;5077068;28;20489;-61
2022/05/10 07:28:00;;;;;;;8.03;7.43;;;22.40;99.90;;;;;;5077250;28;20457;-60
2022/05/10 07:30:31;;;;;;;8.60;7.90;;;22.60;99.90;;;;;;5076654;28;20497;-61
2022/05/10 07:33:00;;;;;;;8.73;7.10;;;22.60;99.90;;;;;;5076888;28;20461;-60
2022/05/10 07:38:23;;;;;;;7.47;6.97;;;22.80;99.90;;;;;;5077237;28;20781;-60
2022/05/10 07:40:50;;;;;;;7.73;6.50;;;22.80;99.90;;;;;;5076760;28;20497;-61
2022/05/10 07:43:19;;;;;;;7.63;6.87;;;22.80;99.90;;;;;;5076176;28;20453;-60
2022/05/10 07:45:52;;;;;;;6.53;5.90;;;22.60;99.90;;;;;;5077146;28;20476;-61
2022/05/10 07:48:27;;;;;;;7.40;6.70;;;23.00;99.90;;;;;;5077143;28;20757;-61
2022/05/10 07:50:54;;;;;;;10.10;6.90;;;23.50;99.90;;;;;;5076925;28;20927;-61
2022/05/10 07:53:26;;;;;;;7.20;6.50;;;24.30;99.90;;;;;;5079536;28;20457;-61
2022/05/10 07:56:01;;;;;;;7.20;6.60;;;24.70;99.90;;;;;;5081193;28;20492;-61
2022/05/10 07:58:28;;;;;;;7.07;6.30;;;24.70;99.90;;;;;;5080777;28;20460;-61
2022/05/10 08:00:59;;;;;;;7.57;6.87;;;24.50;99.90;;;;;;5079408;28;20518;-61
2022/05/10 08:03:30;;;;;;;8.13;7.37;;;24.40;99.90;;;;;;5080795;28;20507;-61
2022/05/10 08:05:59;;;;;;;7.70;6.90;;;24.30;99.90;;;;;;5080779;28;20461;-61
2022/05/10 08:08:29;;;;;;;6.90;6.40;;;24.20;99.90;;;;;;5079301;28;20920;-61
2022/05/10 08:10:57;;;;;;;7.87;7.27;;;24.10;99.90;;;;;;5075754;28;20461;-61
2022/05/10 08:13:34;;;;;;;7.83;7.13;;;23.90;99.90;;;;;;5079715;28;20505;-61
2022/05/10 08:16:09;;;;;;;7.50;6.80;;;23.90;99.90;;;;;;5079685;28;20467;-61
2022/05/10 08:18:36;;;;;;;7.10;6.50;;;23.60;99.90;;;;;;5079426;28;20498;-61
2022/05/10 08:21:05;;;;;;;7.73;6.53;;;23.50;99.90;;;;;;5077680;28;20480;-61
2022/05/10 08:23:37;;;;;;;7.47;6.73;;;23.40;99.90;;;;;;5080571;28;20465;-61
2022/05/10 08:26:12;;;;;;;6.83;6.20;;;23.50;99.90;;;;;;5079947;28;20764;-60
2022/05/10 08:28:39;;;;;;;7.80;7.20;;;23.70;99.90;;;;;;5079999;28;20461;-61
2022/05/10 08:31:15;;;;;;;7.63;6.93;;;24.00;99.90;;;;;;5080411;28;20744;-61
2022/05/10 08:33:45;;;;;;;6.80;6.20;;;24.20;99.90;;;;;;5080567;28;20463;-61
2022/05/10 08:36:23;;;;;;;7.20;6.50;;;24.60;99.90;;;;;;5080593;28;20951;-61
2022/05/10 08:38:57;;;;;;;7.27;6.00;;;25.20;99.90;;;;;;5080048;28;20507;-61
2022/05/10 08:41:28;;;;;;;6.67;6.10;;;25.60;99.90;;;;;;5080181;28;20475;-62
2022/05/10 08:44:00;;;;;;;8.80;7.07;;;26.10;99.90;;;;;;5080201;28;20504;-61
2022/05/10 08:46:32;;;;;;;7.00;6.40;;;26.20;99.90;;;;;;5079794;28;20768;-61
2022/05/10 08:49:05;;;;;;;6.80;6.30;;;26.30;99.90;;;;;;5079093;28;20515;-62
2022/05/10 08:51:36;;;;;;;6.60;6.10;;;26.00;99.90;;;;;;5079686;28;20908;-61
2022/05/10 08:54:09;;;;;;;7.80;6.20;;;26.00;99.90;;;;;;5080244;28;20465;-62
2022/05/10 08:56:43;;;;;;;6.20;5.80;;;26.10;99.90;;;;;;5079329;28;20497;-62
2022/05/10 08:59:25;;;;;;;6.30;5.83;;;26.30;99.90;;;;;;5080008;28;20558;-62
2022/05/10 09:02:03;;;;;;;6.40;5.80;;;26.20;99.90;;;;;;5079875;28;20526;-61
2022/05/10 09:04:49;;;;;;;6.97;6.20;;;25.90;99.90;;;;;;5078668;28;20461;-61
2022/05/10 09:07:35;;;;;;;6.90;6.40;;;26.10;99.90;;;;;;5078127;28;20508;-61
2022/05/10 09:10:15;;;;;;;8.50;6.50;;;26.00;99.90;;;;;;5079040;28;20776;-61
2022/05/10 09:12:46;;;;;;;6.00;5.60;;;26.10;99.90;;;;;;5079188;28;20488;-61
2022/05/10 09:15:17;;;;;;;6.80;6.20;;;26.40;99.90;;;;;;5078559;28;20512;-62
2022/05/10 09:17:44;;;;;;;6.40;5.90;;;26.70;99.90;;;;;;5077728;28;20504;-62
2022/05/10 09:20:14;;;;;;;8.43;7.50;;;26.90;99.90;;;;;;5079260;28;20465;-59
2022/05/10 09:23:07;;;;;;;5.93;5.53;;;26.60;99.90;;;;;;5078886;28;20465;-59
2022/05/10 09:25:45;;;;;;;7.30;6.60;;;26.50;99.90;;;;;;5079365;28;20542;-59
2022/05/10 09:28:19;;;;;;;7.30;6.60;;;26.70;99.90;;;;;;5079466;28;20492;-59
2022/05/10 09:36:48;;;;;;;7.00;6.20;;;27.70;99.90;;;;;;4997336;28;20477;-59
2022/05/10 09:39:21;;;;;;;6.70;5.97;;;27.70;99.90;;;;;;5060467;28;20461;-59
2022/05/10 09:41:54;;;;;;;7.20;6.50;;;26.80;99.90;;;;;;5079147;28;20468;-59
2022/05/10 09:44:29;;;;;;;6.77;6.20;;;26.40;99.90;;;;;;5078975;28;20468;-59
2022/05/10 09:47:14;;;;;;;8.90;5.97;;;26.00;99.90;;;;;;5078850;28;20495;-59
2022/05/10 09:49:42;;;;;;;7.17;6.57;;;25.70;99.90;;;;;;5079015;28;20496;-59
2022/05/10 09:52:21;;;;;;;7.57;6.97;;;25.50;99.90;;;;;;5078845;28;20538;-59
2022/05/10 09:54:51;;;;;;;7.77;6.70;;;25.30;99.90;;;;;;5078676;28;20488;-59
2022/05/10 09:57:31;;;;;;;6.23;5.53;;;25.40;99.90;;;;;;5078601;28;20493;-59
2022/05/10 10:00:02;;;;;;;7.03;6.33;;;25.50;99.90;;;;;;5078493;28;20535;-59
2022/05/10 10:02:37;;;;;;;5.90;5.40;;;25.60;99.90;;;;;;5078462;28;20578;-59
2022/05/10 10:05:23;;;;;;;6.80;6.20;;;25.80;99.90;;;;;;5078765;28;20490;-59
2022/05/10 10:07:53;;;;;;;6.13;5.63;;;26.10;99.90;;;;;;5077514;28;20483;-59
2022/05/10 10:10:24;;;;;;;8.23;6.83;;;25.70;99.90;;;;;;5074631;28;20469;-60
2022/05/10 10:12:56;;;;;;;6.83;6.20;;;26.30;99.90;;;;;;5077385;28;20504;-60
2022/05/10 10:15:32;;;;;;;6.10;5.60;;;27.10;99.90;;;;;;5077535;28;20503;-59
2022/05/10 10:18:05;;;;;;;6.37;5.77;;;27.80;99.90;;;;;;5076832;28;20933;-60
2022/05/10 10:20:41;;;;;;;6.30;5.80;;;28.50;99.90;;;;;;5074803;28;20477;-59
2022/05/10 10:23:23;;;;;;;6.30;5.90;;;28.90;99.90;;;;;;5077940;28;20841;-59
2022/05/10 10:25:53;;;;;;;8.00;6.70;;;28.60;99.90;;;;;;5076908;28;20792;-59
2022/05/10 10:28:29;;;;;;;8.30;7.47;;;28.20;99.90;;;;;;5078186;28;20492;-59
2022/05/10 10:31:03;;;;;;;6.97;6.37;;;27.70;99.90;;;;;;5078087;28;20476;-59
2022/05/10 10:33:35;;;;;;;7.60;7.00;;;27.60;99.90;;;;;;5077910;28;20472;-59
2022/05/10 10:36:10;;;;;;;6.87;6.20;;;27.60;99.90;;;;;;5078061;28;20468;-59
2022/05/10 10:38:57;;;;;;;6.83;6.23;;;27.60;99.90;;;;;;5135833;27;20331;-59
2022/05/10 10:41:36;;;;;;;7.60;7.00;;;28.60;99.90;;;;;;5115164;28;20517;-59
2022/05/10 10:44:12;;;;;;;7.40;6.67;;;29.10;99.90;;;;;;5114927;28;20487;-59
2022/05/10 10:46:48;;;;;;;6.90;6.30;;;28.60;99.90;;;;;;5115186;28;20451;-59
2022/05/10 10:49:21;;;;;;;8.83;6.50;;;27.90;99.90;;;;;;5114599;28;20498;-59
2022/05/10 10:51:53;;;;;;;10.27;7.40;;;28.10;99.90;;;;;;5114710;28;20509;-59
2022/05/10 10:54:24;;;;;;;7.37;6.30;;;27.80;99.90;;;;;;5115038;28;20456;-60
2022/05/10 10:57:04;;;;;;;6.60;6.00;;;28.60;99.90;;;;;;5114385;28;20515;-60
2022/05/10 10:59:48;;;;;;;8.77;6.40;;;28.70;99.90;;;;;;5115163;28;20502;-59
2022/05/10 11:02:41;;;;;;;9.60;7.03;;;29.40;99.90;;;;;;5114419;28;20516;-59
2022/05/10 11:05:33;;;;;;;7.13;6.53;;;29.50;99.90;;;;;;5115025;28;20499;-59
2022/05/10 11:08:15;;;;;;;7.03;6.47;;;29.00;99.90;;;;;;5110652;28;20956;-59
2022/05/10 11:10:52;;;;;;;7.13;6.50;;;28.90;99.90;;;;;;5097098;28;20472;-59
2022/05/10 11:13:35;;;;;;;6.80;6.30;;;28.50;99.90;;;;;;5111461;28;20499;-59
2022/05/10 11:16:21;;;;;;;8.33;6.77;;;27.80;99.90;;;;;;5092115;28;20567;-59
2022/05/10 11:19:10;;;;;;;15.77;14.47;;;27.20;99.90;;;;;;5097190;28;20586;-59
2022/05/10 11:21:50;;;;;;;12.93;11.17;;;27.20;99.90;;;;;;5112962;28;20463;-59
2022/05/10 11:24:26;;;;;;;12.03;8.80;;;27.70;99.90;;;;;;5112187;28;20456;-59
2022/05/10 11:27:29;;;;;;;;;;;;;;;;;;;;;
2022/05/10 11:30:08;;;;;;;6.50;6.00;;;27.60;99.90;;;;;;5098339;28;20476;-59
2022/05/10 11:33:04;;;;;;;7.67;6.97;;;27.50;99.90;;;;;;5095811;28;20460;-59
2022/05/10 11:35:58;;;;;;;6.73;5.90;;;27.70;99.90;;;;;;5100612;28;20475;-59
2022/05/10 11:38:48;;;;;;;6.70;6.30;;;27.70;99.90;;;;;;5091023;28;20515;-59
2022/05/10 11:41:32;;;;;;;7.80;6.17;;;27.60;99.90;;;;;;5091530;28;20484;-59
2022/05/10 11:44:24;;;;;;;6.80;6.07;;;27.50;99.90;;;;;;5091586;28;20467;-59
2022/05/10 11:47:25;;;;;;;7.53;6.20;;;27.70;99.90;;;;;;5105193;28;20467;-59
2022/05/10 11:50:20;;;;;;;6.10;5.50;;;27.20;99.90;;;;;;5094432;28;20763;-58
2022/05/10 11:53:21;;;;;;;13.77;5.70;;;26.70;99.90;;;;;;5077785;28;20758;-58
2022/05/10 11:55:57;;;;;;;6.03;5.50;;;26.50;99.90;;;;;;5084915;28;20552;-58
2022/05/10 11:58:33;;;;;;;6.07;5.47;;;26.60;99.90;;;;;;5081060;28;20503;-61
2022/05/10 12:01:04;;;;;;;4.93;4.63;;;26.70;99.90;;;;;;5075129;28;20556;-61
2022/05/10 12:03:58;;;;;;;9.03;5.40;;;26.70;99.90;;;;;;5083564;28;20518;-61
2022/05/10 12:06:46;;;;;;;6.00;5.50;;;26.70;99.90;;;;;;5062253;28;20464;-61
2022/05/10 12:09:37;;;;;;;6.17;5.67;;;27.00;99.90;;;;;;5076754;28;20461;-61
2022/05/10 12:12:07;;;;;;;5.20;4.70;;;27.30;99.90;;;;;;5081113;28;20464;-61
2022/05/10 12:21:20;;;;;;;9.53;5.07;;;28.00;99.90;;;;;;5085626;28;20498;-61
2022/05/10 12:24:11;;;;;;;8.87;5.53;;;28.60;99.90;;;;;;5090974;28;20522;-61
2022/05/10 12:26:48;;;;;;;6.97;5.93;;;28.70;99.90;;;;;;5046065;28;20512;-62
2022/05/10 12:29:53;;;;;;;5.27;4.87;;;29.20;99.90;;;;;;5084812;28;20563;-61
2022/05/10 12:32:46;;;;;;;6.97;5.60;;;29.60;99.90;;;;;;5088007;28;20465;-59
2022/05/10 12:35:42;;;;;;;5.67;5.13;;;29.90;99.90;;;;;;5078517;28;20469;-59
2022/05/10 12:38:33;;;;;;;5.67;5.17;;;29.90;99.90;;;;;;5078748;28;20528;-59
2022/05/10 12:41:12;;;;;;;6.53;5.27;;;29.60;99.90;;;;;;5079056;28;20898;-59
2022/05/10 12:44:17;;;;;;;5.20;4.80;;;29.70;99.90;;;;;;5078387;28;20465;-59
2022/05/10 12:47:08;;;;;;;5.73;5.23;;;28.60;99.90;;;;;;5079153;28;20457;-59
2022/05/10 12:50:01;;;;;;;5.50;5.10;;;29.10;99.90;;;;;;5079233;28;20457;-59
2022/05/10 12:52:43;;;;;;;5.60;5.10;;;28.30;99.90;;;;;;5078351;28;20497;-59
2022/05/10 12:55:16;;;;;;;6.07;5.03;;;28.20;99.90;;;;;;5079148;28;20748;-59
2022/05/10 12:57:54;;;;;;;8.97;5.20;;;27.90;99.90;;;;;;5078214;28;20873;-59
2022/05/10 13:00:33;;;;;;;7.17;4.63;;;28.00;99.90;;;;;;5078113;28;20909;-59
2022/05/10 13:03:08;;;;;;;6.37;5.77;;;27.80;99.90;;;;;;5078611;28;20769;-59
2022/05/10 13:05:58;;;;;;;6.20;5.67;;;27.20;99.90;;;;;;5078702;28;20741;-59
2022/05/10 13:09:07;;;;;;;8.00;6.30;;;26.90;99.90;;;;;;5079016;28;20933;-61
2022/05/10 13:11:42;;;;;;;5.73;5.17;;;26.90;99.90;;;;;;5041878;28;20974;-62
2022/05/10 13:14:12;;;;;;;7.00;5.10;;;26.50;99.90;;;;;;5084847;28;20471;-61
2022/05/10 13:16:45;;;;;;;6.10;5.10;;;26.40;99.90;;;;;;5084820;28;20515;-62
2022/05/10 13:19:16;;;;;;;5.90;5.40;;;26.30;99.90;;;;;;5087708;28;20571;-62
2022/05/10 13:21:46;;;;;;;5.83;5.43;;;26.40;99.90;;;;;;5078136;28;20465;-62
2022/05/10 13:24:19;;;;;;;7.77;5.30;;;26.40;99.90;;;;;;5082548;28;20512;-61
2022/05/10 13:26:57;;;;;;;9.10;6.03;;;26.50;99.90;;;;;;5076693;28;20501;-61
2022/05/10 13:29:41;;;;;;;5.30;4.87;;;26.60;99.90;;;;;;5077003;28;20464;-61
2022/05/10 13:32:14;;;;;;;7.10;5.70;;;26.70;99.90;;;;;;5077414;28;20471;-61
2022/05/10 13:34:49;;;;;;;6.13;5.60;;;26.40;99.90;;;;;;5085895;28;20484;-61
2022/05/10 13:37:29;;;;;;;9.47;5.50;;;26.50;99.90;;;;;;5076727;28;20496;-61
2022/05/10 13:40:11;;;;;;;8.70;5.77;;;26.60;99.90;;;;;;5076818;28;20464;-61
2022/05/10 13:42:44;;;;;;;6.80;5.30;;;26.70;99.90;;;;;;5077146;28;20465;-62
2022/05/10 13:45:13;;;;;;;7.07;6.37;;;26.60;99.90;;;;;;5076823;28;20829;-61
2022/05/10 13:47:50;;;;;;;6.20;5.70;;;26.30;99.90;;;;;;5077194;28;20489;-61
2022/05/10 13:50:23;;;;;;;7.63;6.00;;;26.10;99.90;;;;;;5077431;28;20457;-61
2022/05/10 13:52:58;;;;;;;6.80;6.20;;;26.00;99.90;;;;;;5077212;28;20464;-62
2022/05/10 13:55:29;;;;;;;6.07;5.40;;;25.90;99.90;;;;;;5078563;28;20574;-61
2022/05/10 13:58:02;;;;;;;7.40;6.50;;;25.90;99.90;;;;;;5090717;28;20500;-61
2022/05/10 14:00:33;;;;;;;5.80;5.40;;;26.00;99.90;;;;;;5083466;28;20472;-62
2022/05/10 14:03:08;;;;;;;6.23;5.23;;;26.10;99.90;;;;;;5077853;28;20861;-61
2022/05/10 14:05:38;;;;;;;6.57;5.93;;;26.10;99.90;;;;;;5076979;28;20754;-61
2022/05/10 14:08:16;;;;;;;5.93;5.33;;;26.20;99.90;;;;;;5083438;28;20495;-61